TLPL/UVF METAR and TAF weather

Enter ICAO airport designator
Station Type Date Time Source
TLPL METAR 2020/01/21 09:00 UTC NOAA

TLPL 210900Z 10021KT 9999 BKN023 25/21 Q1013 NOSIG


Station Type Date Time Source
TLPL Decoded METAR 2020/01/21 09:00 UTC NOAA

Hewanorra International Airport, Saint Lucia (TLPL) 13-45N 060-57W 10M
Jan 21, 2020 - 04:00 AM EST / 2020.01.21 0900 UTC
Wind: from the E (100 degrees) at 24 MPH (21 KT):0
Visibility: greater than 7 mile(s):0
Sky conditions: mostly cloudy
Temperature: 77 F (25 C)
Dew Point: 69 F (21 C)
Relative Humidity: 78%
Pressure (altimeter): 29.91 in. Hg (1013 hPa)
ob: TLPL 210900Z 10021KT 9999 BKN023 25/21 Q1013 NOSIG
cycle: 9

Station Type Date Time Source
TLPL TAF 2020/01/21 06:03 UTC NOAA

TAF TLPL 210500Z 2106/2206 09017KT 9999 SCT022
TEMPO 2200/2206 SHRA BKN015

Example: see airport list